sensor_id;sensor_type;location;lat;lon;timestamp;temperature;humidity
354;DHT22;165;53.592;10.044;2023-02-26T09:55:49;14.10;65.60
354;DHT22;165;53.592;10.044;2023-02-26T09:58:29;13.70;65.10
354;DHT22;165;53.592;10.044;2023-02-26T10:01:34;13.80;67.50
354;DHT22;165;53.592;10.044;2023-02-26T10:06:52;14.10;65.00
354;DHT22;165;53.592;10.044;2023-02-26T10:12:02;14.10;63.00
354;DHT22;165;53.592;10.044;2023-02-26T10:17:13;13.50;65.10
354;DHT22;165;53.592;10.044;2023-02-26T10:19:43;12.80;65.80
354;DHT22;165;53.592;10.044;2023-02-26T10:22:31;12.80;66.80
354;DHT22;165;53.592;10.044;2023-02-26T10:25:05;12.40;66.90
354;DHT22;165;53.592;10.044;2023-02-26T10:30:48;10.60;73.10
354;DHT22;165;53.592;10.044;2023-02-26T10:34:11;11.70;73.70
354;DHT22;165;53.592;10.044;2023-02-26T10:36:29;12.10;72.70
354;DHT22;165;53.592;10.044;2023-02-26T10:39:02;11.90;73.10
354;DHT22;165;53.592;10.044;2023-02-26T10:41:30;11.80;73.30
354;DHT22;165;53.592;10.044;2023-02-26T10:44:12;10.90;73.70
354;DHT22;165;53.592;10.044;2023-02-26T10:46:59;10.10;75.80
354;DHT22;165;53.592;10.044;2023-02-26T10:52:13;8.50;81.80
354;DHT22;165;53.592;10.044;2023-02-26T10:54:51;8.30;82.70
354;DHT22;165;53.592;10.044;2023-02-26T10:57:27;8.10;82.60
354;DHT22;165;53.592;10.044;2023-02-26T10:59:53;8.00;83.40
354;DHT22;165;53.592;10.044;2023-02-26T11:02:39;8.60;82.10
354;DHT22;165;53.592;10.044;2023-02-26T11:05:14;9.10;81.80
354;DHT22;165;53.592;10.044;2023-02-26T11:07:40;9.90;79.80
354;DHT22;165;53.592;10.044;2023-02-26T11:10:19;10.10;80.00
354;DHT22;165;53.592;10.044;2023-02-26T11:12:45;9.80;80.20
354;DHT22;165;53.592;10.044;2023-02-26T11:15:16;9.30;81.80
354;DHT22;165;53.592;10.044;2023-02-26T11:17:42;9.10;82.70
354;DHT22;165;53.592;10.044;2023-02-26T11:20:16;8.80;84.00
354;DHT22;165;53.592;10.044;2023-02-26T11:22:47;9.10;84.40
354;DHT22;165;53.592;10.044;2023-02-26T11:25:13;9.20;83.10
354;DHT22;165;53.592;10.044;2023-02-26T11:27:42;9.70;81.70
354;DHT22;165;53.592;10.044;2023-02-26T11:30:18;10.30;82.00
354;DHT22;165;53.592;10.044;2023-02-26T11:32:49;10.70;80.90
354;DHT22;165;53.592;10.044;2023-02-26T11:35:17;10.60;79.60
354;DHT22;165;53.592;10.044;2023-02-26T11:37:48;10.30;81.10
354;DHT22;165;53.592;10.044;2023-02-26T11:40:37;10.20;82.00
354;DHT22;165;53.592;10.044;2023-02-26T11:43:05;10.10;81.20
354;DHT22;165;53.592;10.044;2023-02-26T11:45:34;9.40;83.40
354;DHT22;165;53.592;10.044;2023-02-26T11:48:06;9.10;84.00
354;DHT22;165;53.592;10.044;2023-02-26T11:50:41;8.90;86.30
354;DHT22;165;53.592;10.044;2023-02-26T11:53:18;8.50;86.50
354;DHT22;165;53.592;10.044;2023-02-26T11:55:46;7.90;88.30
354;DHT22;165;53.592;10.044;2023-02-26T11:58:21;7.70;90.30
354;DHT22;165;53.592;10.044;2023-02-26T12:00:48;8.00;90.40
354;DHT22;165;53.592;10.044;2023-02-26T12:03:21;8.30;90.30
354;DHT22;165;53.592;10.044;2023-02-26T12:05:48;8.50;90.20
354;DHT22;165;53.592;10.044;2023-02-26T12:08:33;8.50;89.80
354;DHT22;165;53.592;10.044;2023-02-26T12:16:29;8.40;90.30
354;DHT22;165;53.592;10.044;2023-02-26T12:27:27;7.80;91.90
354;DHT22;165;53.592;10.044;2023-02-26T12:30:24;7.80;91.70
354;DHT22;165;53.592;10.044;2023-02-26T12:33:08;7.70;92.00
354;DHT22;165;53.592;10.044;2023-02-26T12:35:45;7.80;92.40
354;DHT22;165;53.592;10.044;2023-02-26T12:38:46;7.80;92.60
354;DHT22;165;53.592;10.044;2023-02-26T12:44:06;7.60;92.30
354;DHT22;165;53.592;10.044;2023-02-26T12:46:57;7.60;92.70
354;DHT22;165;53.592;10.044;2023-02-26T12:49:38;7.60;92.40
354;DHT22;165;53.592;10.044;2023-02-26T12:58:03;7.50;92.50
354;DHT22;165;53.592;10.044;2023-02-26T13:00:47;7.40;92.90
354;DHT22;165;53.592;10.044;2023-02-26T13:06:29;6.90;94.20
354;DHT22;165;53.592;10.044;2023-02-26T13:09:01;6.90;94.60
354;DHT22;165;53.592;10.044;2023-02-26T13:11:45;7.20;95.00
354;DHT22;165;53.592;10.044;2023-02-26T13:19:58;7.60;94.50
354;DHT22;165;53.592;10.044;2023-02-26T13:22:43;7.80;94.50
354;DHT22;165;53.592;10.044;2023-02-26T13:25:34;7.90;94.00
354;DHT22;165;53.592;10.044;2023-02-26T13:28:19;7.70;93.70
354;DHT22;165;53.592;10.044;2023-02-26T13:30:49;7.30;93.10
354;DHT22;165;53.592;10.044;2023-02-26T13:33:20;7.00;93.70
354;DHT22;165;53.592;10.044;2023-02-26T13:35:48;6.90;94.10
354;DHT22;165;53.592;10.044;2023-02-26T13:38:54;7.00;94.50
354;DHT22;165;53.592;10.044;2023-02-26T13:41:37;7.30;94.30
354;DHT22;165;53.592;10.044;2023-02-26T13:55:48;7.30;95.10
354;DHT22;165;53.592;10.044;2023-02-26T13:58:29;7.30;94.80
354;DHT22;165;53.592;10.044;2023-02-26T14:01:13;7.20;95.00
354;DHT22;165;53.592;10.044;2023-02-26T14:03:50;7.20;95.30
354;DHT22;165;53.592;10.044;2023-02-26T14:09:04;7.20;95.40
354;DHT22;165;53.592;10.044;2023-02-26T14:12:22;7.20;95.40
354;DHT22;165;53.592;10.044;2023-02-26T14:17:28;6.80;95.10
354;DHT22;165;53.592;10.044;2023-02-26T14:22:33;6.80;94.90
354;DHT22;165;53.592;10.044;2023-02-26T14:27:46;7.40;94.90
354;DHT22;165;53.592;10.044;2023-02-26T14:30:28;7.60;94.20
354;DHT22;165;53.592;10.044;2023-02-26T14:35:28;7.40;93.60
354;DHT22;165;53.592;10.044;2023-02-26T14:38:02;7.10;93.40
354;DHT22;165;53.592;10.044;2023-02-26T14:40:32;6.90;93.90
354;DHT22;165;53.592;10.044;2023-02-26T14:43:02;6.80;94.00
354;DHT22;165;53.592;10.044;2023-02-26T14:45:34;6.90;93.80
354;DHT22;165;53.592;10.044;2023-02-26T14:48:04;7.00;93.80
354;DHT22;165;53.592;10.044;2023-02-26T14:50:39;7.00;93.40
354;DHT22;165;53.592;10.044;2023-02-26T14:56:10;7.00;93.70
354;DHT22;165;53.592;10.044;2023-02-26T15:07:14;6.00;95.40
354;DHT22;165;53.592;10.044;2023-02-26T15:10:02;5.90;95.80
354;DHT22;165;53.592;10.044;2023-02-26T15:12:44;5.80;96.30
354;DHT22;165;53.592;10.044;2023-02-26T15:15:34;5.80;96.60
354;DHT22;165;53.592;10.044;2023-02-26T15:18:10;5.80;96.50
354;DHT22;165;53.592;10.044;2023-02-26T15:20:59;5.70;96.80
354;DHT22;165;53.592;10.044;2023-02-26T15:23:44;5.60;96.90
354;DHT22;165;53.592;10.044;2023-02-26T15:26:31;5.60;97.60
354;DHT22;165;53.592;10.044;2023-02-26T15:28:59;5.50;97.90
354;DHT22;165;53.592;10.044;2023-02-26T15:31:41;6.00;98.10
354;DHT22;165;53.592;10.044;2023-02-26T15:34:10;6.00;98.20
354;DHT22;165;53.592;10.044;2023-02-26T15:36:42;6.30;96.70
354;DHT22;165;53.592;10.044;2023-02-26T15:39:08;6.20;97.00
354;DHT22;165;53.592;10.044;2023-02-26T15:41:34;6.10;97.30
354;DHT22;165;53.592;10.044;2023-02-26T15:44:06;6.10;97.40
354;DHT22;165;53.592;10.044;2023-02-26T15:46:42;5.90;97.90
354;DHT22;165;53.592;10.044;2023-02-26T15:49:22;5.90;97.80
354;DHT22;165;53.592;10.044;2023-02-26T15:51:50;5.70;97.90
354;DHT22;165;53.592;10.044;2023-02-26T15:54:19;5.50;97.70
354;DHT22;165;53.592;10.044;2023-02-26T15:56:46;5.40;97.80
354;DHT22;165;53.592;10.044;2023-02-26T15:59:16;5.10;97.80
354;DHT22;165;53.592;10.044;2023-02-26T16:01:42;5.20;97.90
354;DHT22;165;53.592;10.044;2023-02-26T16:04:13;4.90;98.00
354;DHT22;165;53.592;10.044;2023-02-26T16:06:41;4.80;97.50
354;DHT22;165;53.592;10.044;2023-02-26T16:09:13;4.80;97.70
354;DHT22;165;53.592;10.044;2023-02-26T16:11:40;4.70;97.80
354;DHT22;165;53.592;10.044;2023-02-26T16:14:07;4.60;98.10
354;DHT22;165;53.592;10.044;2023-02-26T16:16:47;4.50;98.50
354;DHT22;165;53.592;10.044;2023-02-26T16:19:18;4.50;98.60
354;DHT22;165;53.592;10.044;2023-02-26T16:21:45;4.40;99.00
354;DHT22;165;53.592;10.044;2023-02-26T16:24:15;4.40;98.90
354;DHT22;165;53.592;10.044;2023-02-26T16:26:49;4.30;99.30
354;DHT22;165;53.592;10.044;2023-02-26T16:29:23;4.30;99.60
354;DHT22;165;53.592;10.044;2023-02-26T16:31:52;4.60;99.80
354;DHT22;165;53.592;10.044;2023-02-26T16:34:41;4.30;99.90
354;DHT22;165;53.592;10.044;2023-02-26T16:39:43;4.20;99.90
354;DHT22;165;53.592;10.044;2023-02-26T16:42:14;4.20;99.90
354;DHT22;165;53.592;10.044;2023-02-26T16:44:49;4.10;99.90
354;DHT22;165;53.592;10.044;2023-02-26T16:47:15;4.10;99.90
354;DHT22;165;53.592;10.044;2023-02-26T16:49:42;4.10;99.90
354;DHT22;165;53.592;10.044;2023-02-26T16:52:14;4.10;99.90
354;DHT22;165;53.592;10.044;2023-02-26T16:54:42;4.10;99.90
354;DHT22;165;53.592;10.044;2023-02-26T16:57:18;4.10;99.90
354;DHT22;165;53.592;10.044;2023-02-26T16:59:50;4.10;99.90
354;DHT22;165;53.592;10.044;2023-02-26T17:02:19;3.90;99.90
354;DHT22;165;53.592;10.044;2023-02-26T17:05:34;3.80;99.90
354;DHT22;165;53.592;10.044;2023-02-26T17:07:36;3.80;99.90
354;DHT22;165;53.592;10.044;2023-02-26T17:10:59;3.70;99.90
354;DHT22;165;53.592;10.044;2023-02-26T17:13:33;3.70;99.90
354;DHT22;165;53.592;10.044;2023-02-26T17:16:02;3.60;99.90
354;DHT22;165;53.592;10.044;2023-02-26T17:18:29;3.50;99.90
354;DHT22;165;53.592;10.044;2023-02-26T17:20:55;3.50;99.90
354;DHT22;165;53.592;10.044;2023-02-26T17:23:22;3.60;99.90
354;DHT22;165;53.592;10.044;2023-02-26T17:25:51;3.50;99.90
354;DHT22;165;53.592;10.044;2023-02-26T17:28:22;3.40;99.90
354;DHT22;165;53.592;10.044;2023-02-26T17:30:48;3.40;99.90
354;DHT22;165;53.592;10.044;2023-02-26T17:33:14;3.30;99.90
354;DHT22;165;53.592;10.044;2023-02-26T17:35:40;3.20;99.90
354;DHT22;165;53.592;10.044;2023-02-26T17:38:07;3.30;99.90
354;DHT22;165;53.592;10.044;2023-02-26T17:40:34;3.20;99.90
354;DHT22;165;53.592;10.044;2023-02-26T17:43:00;3.10;99.90
354;DHT22;165;53.592;10.044;2023-02-26T17:45:25;3.10;99.90
354;DHT22;165;53.592;10.044;2023-02-26T17:47:51;3.00;99.90
354;DHT22;165;53.592;10.044;2023-02-26T17:50:29;2.90;99.90
354;DHT22;165;53.592;10.044;2023-02-26T17:52:57;2.90;99.90
354;DHT22;165;53.592;10.044;2023-02-26T17:55:22;2.80;99.90
354;DHT22;165;53.592;10.044;2023-02-26T17:57:48;2.80;99.90
354;DHT22;165;53.592;10.044;2023-02-26T18:00:15;2.70;99.90
354;DHT22;165;53.592;10.044;2023-02-26T18:02:41;2.70;99.90
354;DHT22;165;53.592;10.044;2023-02-26T18:05:10;2.70;99.90
354;DHT22;165;53.592;10.044;2023-02-26T18:07:36;2.60;99.90
354;DHT22;165;53.592;10.044;2023-02-26T18:10:03;2.60;99.90
354;DHT22;165;53.592;10.044;2023-02-26T18:12:28;2.50;99.90
354;DHT22;165;53.592;10.044;2023-02-26T18:14:54;2.50;99.90
354;DHT22;165;53.592;10.044;2023-02-26T18:17:28;2.40;99.90
354;DHT22;165;53.592;10.044;2023-02-26T18:19:54;2.50;99.90
354;DHT22;165;53.592;10.044;2023-02-26T18:22:20;2.40;99.90
354;DHT22;165;53.592;10.044;2023-02-26T18:24:46;2.30;99.90
354;DHT22;165;53.592;10.044;2023-02-26T18:27:14;2.30;99.90
354;DHT22;165;53.592;10.044;2023-02-26T18:29:40;2.20;99.90
354;DHT22;165;53.592;10.044;2023-02-26T18:32:07;2.20;99.90
354;DHT22;165;53.592;10.044;2023-02-26T18:34:33;2.20;99.90
354;DHT22;165;53.592;10.044;2023-02-26T18:37:01;2.10;99.90
354;DHT22;165;53.592;10.044;2023-02-26T18:39:26;2.10;99.90
354;DHT22;165;53.592;10.044;2023-02-26T18:41:52;2.10;99.90
354;DHT22;165;53.592;10.044;2023-02-26T18:44:18;2.10;99.90
354;DHT22;165;53.592;10.044;2023-02-26T18:46:43;2.10;99.90
354;DHT22;165;53.592;10.044;2023-02-26T18:49:33;2.00;99.90
354;DHT22;165;53.592;10.044;2023-02-26T18:51:59;2.00;99.90
354;DHT22;165;53.592;10.044;2023-02-26T18:54:24;2.00;99.90
354;DHT22;165;53.592;10.044;2023-02-26T18:56:50;2.00;99.90
354;DHT22;165;53.592;10.044;2023-02-26T18:59:15;1.90;99.90
354;DHT22;165;53.592;10.044;2023-02-26T19:01:41;2.00;99.90
354;DHT22;165;53.592;10.044;2023-02-26T19:04:08;1.90;99.90
354;DHT22;165;53.592;10.044;2023-02-26T19:06:33;1.90;99.90
354;DHT22;165;53.592;10.044;2023-02-26T19:09:11;1.80;99.90
354;DHT22;165;53.592;10.044;2023-02-26T19:11:36;1.80;99.90
354;DHT22;165;53.592;10.044;2023-02-26T19:14:02;1.70;99.90
354;DHT22;165;53.592;10.044;2023-02-26T19:16:30;1.80;99.90
354;DHT22;165;53.592;10.044;2023-02-26T19:18:56;1.80;99.90
354;DHT22;165;53.592;10.044;2023-02-26T19:21:21;1.80;99.90
354;DHT22;165;53.592;10.044;2023-02-26T19:23:50;1.70;99.90
354;DHT22;165;53.592;10.044;2023-02-26T19:26:15;1.70;99.90
354;DHT22;165;53.592;10.044;2023-02-26T19:28:41;1.70;99.90
354;DHT22;165;53.592;10.044;2023-02-26T19:31:06;1.60;99.90
354;DHT22;165;53.592;10.044;2023-02-26T19:33:35;1.50;99.90
354;DHT22;165;53.592;10.044;2023-02-26T19:36:00;1.50;99.90
354;DHT22;165;53.592;10.044;2023-02-26T19:38:26;1.50;99.90
354;DHT22;165;53.592;10.044;2023-02-26T19:40:54;1.40;99.90
354;DHT22;165;53.592;10.044;2023-02-26T19:43:22;1.50;99.90
354;DHT22;165;53.592;10.044;2023-02-26T19:45:51;1.60;99.90
354;DHT22;165;53.592;10.044;2023-02-26T19:48:19;1.40;99.90
354;DHT22;165;53.592;10.044;2023-02-26T19:50:48;1.40;99.90
354;DHT22;165;53.592;10.044;2023-02-26T19:53:14;1.40;99.90
354;DHT22;165;53.592;10.044;2023-02-26T19:55:39;1.40;99.90
354;DHT22;165;53.592;10.044;2023-02-26T19:58:05;1.40;99.90
354;DHT22;165;53.592;10.044;2023-02-26T20:00:30;1.30;99.90
354;DHT22;165;53.592;10.044;2023-02-26T20:02:56;1.30;99.90
354;DHT22;165;53.592;10.044;2023-02-26T20:05:21;1.10;99.90
354;DHT22;165;53.592;10.044;2023-02-26T20:07:50;1.20;99.90
354;DHT22;165;53.592;10.044;2023-02-26T20:10:17;1.20;99.90
354;DHT22;165;53.592;10.044;2023-02-26T20:12:44;1.60;99.90
354;DHT22;165;53.592;10.044;2023-02-26T20:15:10;1.10;99.90
354;DHT22;165;53.592;10.044;2023-02-26T20:17:35;1.20;99.90
354;DHT22;165;53.592;10.044;2023-02-26T20:20:01;1.10;99.90
354;DHT22;165;53.592;10.044;2023-02-26T20:22:26;1.10;99.90
354;DHT22;165;53.592;10.044;2023-02-26T20:24:52;1.10;99.90
354;DHT22;165;53.592;10.044;2023-02-26T20:27:18;1.10;99.90
354;DHT22;165;53.592;10.044;2023-02-26T20:29:44;1.10;99.90
354;DHT22;165;53.592;10.044;2023-02-26T20:32:12;1.10;99.90
354;DHT22;165;53.592;10.044;2023-02-26T20:34:37;1.00;99.90
354;DHT22;165;53.592;10.044;2023-02-26T20:37:03;1.10;99.90
354;DHT22;165;53.592;10.044;2023-02-26T20:39:28;1.10;99.90
354;DHT22;165;53.592;10.044;2023-02-26T20:41:54;1.10;99.90
354;DHT22;165;53.592;10.044;2023-02-26T20:44:19;1.10;99.90
354;DHT22;165;53.592;10.044;2023-02-26T20:46:45;1.10;99.90
354;DHT22;165;53.592;10.044;2023-02-26T20:49:10;1.00;99.90
354;DHT22;165;53.592;10.044;2023-02-26T20:51:42;1.00;99.90
354;DHT22;165;53.592;10.044;2023-02-26T20:54:09;0.90;99.90
354;DHT22;165;53.592;10.044;2023-02-26T20:56:34;0.90;99.90
354;DHT22;165;53.592;10.044;2023-02-26T20:59:00;0.80;99.90
354;DHT22;165;53.592;10.044;2023-02-26T21:01:25;0.80;99.90
354;DHT22;165;53.592;10.044;2023-02-26T21:03:51;0.80;99.90
354;DHT22;165;53.592;10.044;2023-02-26T21:06:16;0.80;99.90
354;DHT22;165;53.592;10.044;2023-02-26T21:08:42;0.80;99.90
354;DHT22;165;53.592;10.044;2023-02-26T21:11:07;0.80;99.90
354;DHT22;165;53.592;10.044;2023-02-26T21:13:33;0.80;99.90
354;DHT22;165;53.592;10.044;2023-02-26T21:15:58;0.80;99.90
354;DHT22;165;53.592;10.044;2023-02-26T21:18:24;0.70;99.90
354;DHT22;165;53.592;10.044;2023-02-26T21:20:49;0.60;99.90
354;DHT22;165;53.592;10.044;2023-02-26T21:23:18;0.60;99.90
354;DHT22;165;53.592;10.044;2023-02-26T21:25:43;0.50;99.90
354;DHT22;165;53.592;10.044;2023-02-26T21:28:09;0.50;99.90
354;DHT22;165;53.592;10.044;2023-02-26T21:30:34;0.50;99.90
354;DHT22;165;53.592;10.044;2023-02-26T21:33:00;0.50;99.90
354;DHT22;165;53.592;10.044;2023-02-26T21:35:25;0.40;99.90
354;DHT22;165;53.592;10.044;2023-02-26T21:37:54;0.40;99.90
354;DHT22;165;53.592;10.044;2023-02-26T21:40:21;0.40;99.90
354;DHT22;165;53.592;10.044;2023-02-26T21:42:48;0.50;99.90
354;DHT22;165;53.592;10.044;2023-02-26T21:45:13;0.40;99.90
354;DHT22;165;53.592;10.044;2023-02-26T21:47:39;0.40;99.90
354;DHT22;165;53.592;10.044;2023-02-26T21:50:06;0.40;99.90
354;DHT22;165;53.592;10.044;2023-02-26T21:52:31;0.40;99.90
354;DHT22;165;53.592;10.044;2023-02-26T21:54:57;0.40;99.90
354;DHT22;165;53.592;10.044;2023-02-26T21:57:24;0.30;99.90
354;DHT22;165;53.592;10.044;2023-02-26T21:59:49;0.30;99.90
354;DHT22;165;53.592;10.044;2023-02-26T22:02:15;0.40;99.90
354;DHT22;165;53.592;10.044;2023-02-26T22:04:41;0.40;99.90
354;DHT22;165;53.592;10.044;2023-02-26T22:07:07;0.40;99.90
354;DHT22;165;53.592;10.044;2023-02-26T22:09:32;0.50;99.90
354;DHT22;165;53.592;10.044;2023-02-26T22:12:01;0.30;99.90
354;DHT22;165;53.592;10.044;2023-02-26T22:14:26;0.40;99.90
354;DHT22;165;53.592;10.044;2023-02-26T22:16:52;0.30;99.90
354;DHT22;165;53.592;10.044;2023-02-26T22:19:17;0.20;99.90
354;DHT22;165;53.592;10.044;2023-02-26T22:21:43;0.20;99.90
354;DHT22;165;53.592;10.044;2023-02-26T22:24:09;0.10;99.90
354;DHT22;165;53.592;10.044;2023-02-26T22:26:35;0.10;99.90
354;DHT22;165;53.592;10.044;2023-02-26T22:29:00;0.10;99.90
354;DHT22;165;53.592;10.044;2023-02-26T22:31:27;0.10;99.90
354;DHT22;165;53.592;10.044;2023-02-26T22:33:52;0.10;99.90
354;DHT22;165;53.592;10.044;2023-02-26T22:36:18;0.20;99.90
354;DHT22;165;53.592;10.044;2023-02-26T22:38:43;0.20;99.90
354;DHT22;165;53.592;10.044;2023-02-26T22:41:09;0.20;99.90
354;DHT22;165;53.592;10.044;2023-02-26T22:43:34;0.20;99.90
354;DHT22;165;53.592;10.044;2023-02-26T22:46:00;0.10;99.90
354;DHT22;165;53.592;10.044;2023-02-26T22:48:25;0.10;99.90
354;DHT22;165;53.592;10.044;2023-02-26T22:50:51;0.10;99.90
354;DHT22;165;53.592;10.044;2023-02-26T22:53:17;0.20;99.90
354;DHT22;165;53.592;10.044;2023-02-26T22:55:42;0.10;99.90
354;DHT22;165;53.592;10.044;2023-02-26T22:58:08;0.00;99.90
354;DHT22;165;53.592;10.044;2023-02-26T23:00:33;0.10;99.90
354;DHT22;165;53.592;10.044;2023-02-26T23:02:59;0.10;99.90
354;DHT22;165;53.592;10.044;2023-02-26T23:05:24;0.10;99.90
354;DHT22;165;53.592;10.044;2023-02-26T23:08:09;0.00;99.90
354;DHT22;165;53.592;10.044;2023-02-26T23:10:35;0.00;99.90
354;DHT22;165;53.592;10.044;2023-02-26T23:13:00;0.00;99.90
354;DHT22;165;53.592;10.044;2023-02-26T23:15:26;0.00;99.90
354;DHT22;165;53.592;10.044;2023-02-26T23:17:51;0.00;99.90
354;DHT22;165;53.592;10.044;2023-02-26T23:20:17;0.00;99.90
354;DHT22;165;53.592;10.044;2023-02-26T23:22:42;0.00;99.90
354;DHT22;165;53.592;10.044;2023-02-26T23:25:09;0.00;99.90
354;DHT22;165;53.592;10.044;2023-02-26T23:27:34;-0.10;99.90
354;DHT22;165;53.592;10.044;2023-02-26T23:30:00;0.00;99.90
354;DHT22;165;53.592;10.044;2023-02-26T23:32:26;-0.10;99.90
354;DHT22;165;53.592;10.044;2023-02-26T23:34:51;-0.10;99.90
354;DHT22;165;53.592;10.044;2023-02-26T23:37:16;-0.10;99.90
354;DHT22;165;53.592;10.044;2023-02-26T23:39:42;-0.10;99.90
354;DHT22;165;53.592;10.044;2023-02-26T23:42:07;-0.10;99.90
354;DHT22;165;53.592;10.044;2023-02-26T23:44:33;-0.10;99.90
354;DHT22;165;53.592;10.044;2023-02-26T23:46:58;-0.10;99.90
354;DHT22;165;53.592;10.044;2023-02-26T23:49:24;-0.10;99.90
354;DHT22;165;53.592;10.044;2023-02-26T23:51:49;-0.10;99.90
354;DHT22;165;53.592;10.044;2023-02-26T23:54:14;-0.10;99.90
354;DHT22;165;53.592;10.044;2023-02-26T23:56:40;-0.10;99.90
354;DHT22;165;53.592;10.044;2023-02-26T23:59:06;-0.20;99.90
